Time;durP1;ratioP1;P1;durP2;ratioP2;P2;SDS_P1;SDS_P2;PMS_P1;PMS_P2;Temp;Humidity;BMP_temperature;BMP_pressure;BME280_temperature;BME280_humidity;BME280_pressure;Samples;Min_cycle;Max_cycle;Signal;HPM_P1;HPM_P2
2022/12/08 00:01:57;;;;;;;32.33;12.85;;;;;;;1.69;100.00;98283.78;2256134;79;21048;-59
2022/12/08 00:11:05;;;;;;;32.75;12.03;;;;;;;1.65;100.00;98297.73;2229460;79;21066;-58
2022/12/08 00:14:07;;;;;;;29.40;10.85;;;;;;;1.72;100.00;98299.21;2256291;79;20992;-58
2022/12/08 00:17:08;;;;;;;30.72;11.68;;;;;;;1.74;100.00;98303.04;2256570;79;20965;-59
2022/12/08 00:20:10;;;;;;;29.25;11.83;;;;;;;1.79;100.00;98301.58;2256221;79;21000;-58
2022/12/08 00:23:12;;;;;;;29.45;10.72;;;;;;;1.75;100.00;98296.11;2256331;79;21076;-59
2022/12/08 00:26:13;;;;;;;31.17;11.15;;;;;;;1.74;100.00;98305.62;2256326;79;21040;-59
2022/12/08 00:29:15;;;;;;;27.60;10.68;;;;;;;1.77;100.00;98304.22;2256270;79;21562;-58
2022/12/08 00:32:16;;;;;;;28.70;9.78;;;;;;;1.85;100.00;98303.95;2256240;79;21075;-59
2022/12/08 00:35:17;;;;;;;27.22;10.43;;;;;;;1.81;100.00;98305.81;2256649;79;21020;-58
2022/12/08 00:38:19;;;;;;;26.07;9.38;;;;;;;1.73;100.00;98316.86;2256218;79;21084;-59
2022/12/08 00:44:23;;;;;;;24.40;9.35;;;;;;;1.74;100.00;98317.27;2229349;79;21048;-59
2022/12/08 00:47:25;;;;;;;23.87;8.73;;;;;;;1.76;100.00;98319.80;2256214;79;21016;-59
2022/12/08 00:50:26;;;;;;;26.80;9.20;;;;;;;1.75;100.00;98325.85;2256119;79;21044;-59
2022/12/08 00:53:28;;;;;;;24.05;9.33;;;;;;;1.76;100.00;98328.84;2256402;79;21044;-59
2022/12/08 00:56:29;;;;;;;26.02;8.85;;;;;;;1.77;100.00;98330.08;2256134;79;21092;-58
2022/12/08 00:59:31;;;;;;;23.83;8.75;;;;;;;1.80;100.00;98334.31;2256375;79;21567;-58
2022/12/08 01:02:33;;;;;;;26.42;9.55;;;;;;;1.81;100.00;98329.09;2256068;79;21033;-58
2022/12/08 01:05:34;;;;;;;;;;;;;;;1.82;100.00;98337.69;2258969;79;21079;-59
2022/12/08 01:08:36;;;;;;;25.60;9.85;;;;;;;1.79;100.00;98344.25;2256168;79;20094;-58
2022/12/08 01:11:37;;;;;;;29.27;9.60;;;;;;;1.79;100.00;98342.96;2256505;79;21032;-59
2022/12/08 01:14:39;;;;;;;24.85;8.78;;;;;;;1.80;100.00;98337.73;2256098;79;21236;-59
2022/12/08 01:17:41;;;;;;;26.45;9.18;;;;;;;1.83;100.00;98345.39;2256355;79;21083;-58
2022/12/08 01:20:42;;;;;;;26.77;9.18;;;;;;;1.79;100.00;98342.96;2255763;79;21000;-59
2022/12/08 01:23:44;;;;;;;25.40;8.93;;;;;;;1.76;100.00;98341.77;2256390;79;21484;-58
2022/12/08 01:26:45;;;;;;;25.23;9.23;;;;;;;1.76;100.00;98342.61;2256465;79;21076;-58
2022/12/08 01:29:46;;;;;;;22.55;8.03;;;;;;;1.75;100.00;98345.25;2256364;79;21049;-58
2022/12/08 01:32:48;;;;;;;24.57;8.73;;;;;;;1.70;100.00;98345.41;2256321;79;21072;-59
2022/12/08 01:35:49;;;;;;;25.12;8.80;;;;;;;1.67;100.00;98343.75;2256328;79;21024;-58
2022/12/08 01:38:51;;;;;;;24.60;8.80;;;;;;;1.64;100.00;98346.87;2256431;79;21017;-58
2022/12/08 01:41:52;;;;;;;26.20;8.85;;;;;;;1.60;100.00;98331.09;2256286;79;21056;-58
2022/12/08 01:44:53;;;;;;;25.27;9.18;;;;;;;1.55;100.00;98346.73;2256585;79;21508;-58
2022/12/08 01:47:55;;;;;;;26.68;9.48;;;;;;;1.51;100.00;98338.70;2256202;79;21039;-59
2022/12/08 01:50:56;;;;;;;24.63;8.50;;;;;;;1.48;100.00;98341.35;2256498;79;21523;-58
2022/12/08 01:53:58;;;;;;;26.45;9.48;;;;;;;1.44;100.00;98345.79;2256423;79;21052;-58
2022/12/08 01:56:59;;;;;;;24.77;8.28;;;;;;;1.48;100.00;98345.23;2256292;79;21044;-58
2022/12/08 02:00:01;;;;;;;24.00;8.85;;;;;;;1.44;100.00;98347.08;2256300;79;21056;-59
2022/12/08 02:03:02;;;;;;;25.37;8.73;;;;;;;1.44;100.00;98339.33;2256486;79;21091;-59
2022/12/08 02:06:04;;;;;;;26.05;9.28;;;;;;;1.39;100.00;98347.66;2256552;79;21209;-58
2022/12/08 02:09:05;;;;;;;28.47;10.00;;;;;;;1.35;100.00;98353.39;2256738;79;21087;-58
2022/12/08 02:12:07;;;;;;;26.60;9.73;;;;;;;1.37;100.00;98346.42;2256605;79;21165;-58
2022/12/08 02:15:08;;;;;;;25.30;9.40;;;;;;;1.41;100.00;98342.02;2256510;79;21047;-58
2022/12/08 02:18:10;;;;;;;26.82;9.98;;;;;;;1.41;100.00;98348.48;2256309;79;21004;-58
2022/12/08 02:21:11;;;;;;;26.85;9.58;;;;;;;1.44;100.00;98348.80;2256254;79;21029;-58
2022/12/08 02:24:13;;;;;;;27.60;9.63;;;;;;;1.52;100.00;98345.11;2256536;79;21584;-58
2022/12/08 02:27:14;;;;;;;28.70;9.70;;;;;;;1.58;100.00;98344.50;2256132;79;21084;-58
2022/12/08 02:30:16;;;;;;;27.67;10.70;;;;;;;1.61;100.00;98354.30;2256209;79;21522;-58
2022/12/08 02:33:17;;;;;;;29.90;10.50;;;;;;;1.48;100.00;98356.44;2256271;79;21039;-58
2022/12/08 02:36:18;;;;;;;28.07;10.50;;;;;;;1.55;100.00;98355.77;2256255;79;21080;-58
2022/12/08 02:39:20;;;;;;;30.52;11.75;;;;;;;1.67;100.00;98363.14;2256391;79;21033;-58
2022/12/08 02:42:21;;;;;;;31.35;12.63;;;;;;;1.79;100.00;98358.02;2256195;79;21032;-59
2022/12/08 02:45:23;;;;;;;30.40;12.55;;;;;;;1.95;100.00;98357.52;2256505;79;21009;-58
2022/12/08 02:48:24;;;;;;;32.20;13.13;;;;;;;2.02;100.00;98348.66;2255036;79;21072;-59
2022/12/08 02:51:25;;;;;;;35.80;14.03;;;;;;;2.12;100.00;98344.02;2249314;79;21531;-58
2022/12/08 02:54:27;;;;;;;35.28;14.38;;;;;;;2.14;100.00;98337.03;2249163;79;21049;-58
2022/12/08 02:57:28;;;;;;;34.90;16.05;;;;;;;2.07;100.00;98340.30;2248766;79;21495;-58
2022/12/08 03:00:30;;;;;;;40.47;15.90;;;;;;;2.06;100.00;98336.84;2249322;79;21104;-58
2022/12/08 03:03:31;;;;;;;38.53;16.45;;;;;;;2.05;100.00;98340.78;2249122;79;21261;-58
2022/12/08 03:06:33;;;;;;;37.13;16.23;;;;;;;2.04;100.00;98350.30;2249306;79;21021;-58
2022/12/08 03:09:34;;;;;;;39.70;17.37;;;;;;;2.06;100.00;98355.42;2249158;79;21084;-58
2022/12/08 03:12:36;;;;;;;40.17;16.60;;;;;;;2.14;100.00;98358.59;2249246;79;21045;-58
2022/12/08 03:15:37;;;;;;;40.38;16.75;;;;;;;2.17;100.00;98354.61;2249129;79;21024;-59
2022/12/08 03:18:39;;;;;;;42.15;17.52;;;;;;;2.21;100.00;98361.38;2249176;79;21559;-58
2022/12/08 03:21:41;;;;;;;39.27;16.37;;;;;;;2.27;100.00;98362.03;2249278;79;21020;-60
2022/12/08 03:24:43;;;;;;;37.55;16.50;;;;;;;2.38;100.00;98364.64;2249260;79;21520;-59
2022/12/08 03:27:44;;;;;;;39.55;16.67;;;;;;;2.45;100.00;98365.74;2249164;79;21042;-58
2022/12/08 03:30:45;;;;;;;40.95;16.67;;;;;;;2.46;100.00;98364.82;2249433;79;21508;-58
2022/12/08 03:33:47;;;;;;;40.80;16.95;;;;;;;2.55;100.00;98373.57;2249257;79;21075;-59
2022/12/08 03:36:48;;;;;;;43.95;17.57;;;;;;;2.57;100.00;98364.86;2249142;79;21025;-58
2022/12/08 03:39:50;;;;;;;42.25;16.50;;;;;;;2.54;100.00;98354.61;2249271;79;21056;-58
2022/12/08 03:46:30;;;;;;;41.73;17.40;;;;;;;2.57;100.00;98363.99;2249055;79;21056;-59
2022/12/08 03:49:31;;;;;;;45.20;18.75;;;;;;;2.47;100.00;98361.34;2252184;79;21060;-59
2022/12/08 03:52:33;;;;;;;43.25;18.65;;;;;;;2.45;100.00;98360.10;2256089;79;21072;-59
2022/12/08 03:55:34;;;;;;;42.00;17.45;;;;;;;2.43;100.00;98349.80;2256212;79;21060;-59
2022/12/08 03:58:35;;;;;;;39.20;16.62;;;;;;;2.54;100.00;98354.61;2256307;79;21080;-58
2022/12/08 04:01:37;;;;;;;42.17;16.13;;;;;;;2.47;100.00;98347.97;2255990;79;21015;-58
2022/12/08 04:04:39;;;;;;;38.93;16.70;;;;;;;2.52;100.00;98346.04;2256713;79;21475;-58
2022/12/08 04:07:40;;;;;;;42.60;16.07;;;;;;;2.52;100.00;98350.39;2256179;79;21009;-58
2022/12/08 04:10:41;;;;;;;41.20;15.85;;;;;;;2.49;100.00;98347.91;2256137;79;21024;-58
2022/12/08 04:13:43;;;;;;;36.28;15.40;;;;;;;2.49;100.00;98349.20;2256293;79;21040;-59
2022/12/08 04:16:44;;;;;;;34.98;14.70;;;;;;;2.47;100.00;98352.28;2256177;79;21064;-58
2022/12/08 04:19:46;;;;;;;39.25;15.83;;;;;;;2.49;100.00;98353.09;2256211;79;21103;-58
2022/12/08 04:22:47;;;;;;;35.70;15.72;;;;;;;2.50;100.00;98353.46;2256099;79;21028;-58
2022/12/08 04:25:49;;;;;;;41.80;17.12;;;;;;;2.50;100.00;98356.05;2256302;79;21507;-58
2022/12/08 04:28:50;;;;;;;37.40;16.00;;;;;;;2.50;100.00;98354.76;2256141;79;21000;-58
2022/12/08 04:31:52;;;;;;;35.55;14.47;;;;;;;2.50;100.00;98352.17;2256298;79;21065;-59
2022/12/08 04:34:53;;;;;;;39.18;16.42;;;;;;;2.50;100.00;98351.73;2256263;79;20997;-58
2022/12/08 04:37:55;;;;;;;38.60;15.35;;;;;;;2.52;100.00;98352.52;2256136;79;21063;-58
2022/12/08 04:40:56;;;;;;;35.48;15.20;;;;;;;2.51;100.00;98355.16;2256338;79;21047;-58
2022/12/08 04:43:57;;;;;;;34.92;14.40;;;;;;;2.49;100.00;98356.97;2256128;79;21052;-58
2022/12/08 04:46:59;;;;;;;36.28;14.90;;;;;;;2.47;100.00;98346.67;2256311;79;21570;-58
2022/12/08 04:50:00;;;;;;;37.40;14.00;;;;;;;2.42;100.00;98348.56;2252320;79;20961;-58
2022/12/08 04:53:02;;;;;;;35.05;14.25;;;;;;;2.38;100.00;98347.81;2249046;79;21538;-59
2022/12/08 04:56:03;;;;;;;34.23;14.55;;;;;;;2.34;100.00;98346.27;2249171;79;21065;-59
2022/12/08 04:59:04;;;;;;;35.95;14.55;;;;;;;2.39;100.00;98347.39;2249051;79;21029;-58
2022/12/08 05:02:06;;;;;;;36.47;15.10;;;;;;;2.37;100.00;98350.03;2248882;79;21090;-59
2022/12/08 05:05:08;;;;;;;35.30;15.40;;;;;;;2.39;100.00;98345.63;2249039;79;21286;-58
2022/12/08 05:08:09;;;;;;;34.80;13.80;;;;;;;2.42;100.00;98346.81;2249427;79;21028;-59
2022/12/08 05:11:11;;;;;;;37.78;15.45;;;;;;;2.45;100.00;98343.73;2248993;79;21012;-58
2022/12/08 05:14:12;;;;;;;39.23;16.15;;;;;;;2.35;100.00;98343.22;2248993;79;21085;-58
2022/12/08 05:17:14;;;;;;;36.23;16.02;;;;;;;2.33;100.00;98348.45;2249068;79;21025;-58
2022/12/08 05:20:16;;;;;;;38.90;16.60;;;;;;;2.45;100.00;98342.45;2249307;79;21571;-58
2022/12/08 05:23:17;;;;;;;40.55;16.82;;;;;;;2.45;100.00;98342.45;2249265;79;21467;-58
2022/12/08 05:26:19;;;;;;;38.87;15.73;;;;;;;2.48;100.00;98343.16;2249522;79;21077;-58
2022/12/08 05:29:20;;;;;;;36.33;15.32;;;;;;;2.51;100.00;98331.40;2249143;79;21528;-59
2022/12/08 05:32:21;;;;;;;39.42;15.95;;;;;;;2.57;100.00;98344.57;2249011;79;21028;-58
2022/12/08 05:35:23;;;;;;;36.80;15.60;;;;;;;2.47;100.00;98346.67;2248953;79;21000;-58
2022/12/08 05:38:25;;;;;;;38.55;15.53;;;;;;;2.43;100.00;98345.92;2249017;79;21036;-58
2022/12/08 05:41:26;;;;;;;36.00;15.70;;;;;;;2.37;100.00;98348.73;2248878;79;21630;-59
2022/12/08 05:44:27;;;;;;;40.70;16.82;;;;;;;2.29;100.00;98348.16;2248979;79;21072;-58
2022/12/08 05:47:29;;;;;;;48.23;19.57;;;;;;;2.26;100.00;98349.56;2248993;79;21530;-58
2022/12/08 05:50:30;;;;;;;52.40;19.95;;;;;;;2.28;100.00;98354.68;2253127;79;21048;-58
2022/12/08 05:53:32;;;;;;;50.27;19.33;;;;;;;2.23;100.00;98355.68;2256393;79;21060;-59
2022/12/08 05:56:33;;;;;;;48.33;19.07;;;;;;;2.17;100.00;98352.45;2256223;79;21080;-59
2022/12/08 05:59:36;;;;;;;41.98;16.90;;;;;;;2.17;100.00;98350.72;2256128;79;21059;-59
2022/12/08 06:02:37;;;;;;;48.83;18.57;;;;;;;2.20;100.00;98349.78;2256062;79;21067;-59
2022/12/08 06:05:39;;;;;;;39.65;15.68;;;;;;;2.18;100.00;98351.56;2256068;79;21515;-59
2022/12/08 06:08:40;;;;;;;44.30;15.65;;;;;;;2.17;100.00;98358.92;2256060;79;21099;-59
2022/12/08 06:11:42;;;;;;;57.83;19.27;;;;;;;2.13;100.00;98367.25;2256198;79;21057;-58
2022/12/08 06:14:43;;;;;;;59.57;21.43;;;;;;;2.12;100.00;98369.43;2256727;79;21052;-59
2022/12/08 06:17:45;;;;;;;39.63;15.23;;;;;;;2.10;100.00;98369.08;2256558;79;21393;-59
2022/12/08 06:20:47;;;;;;;36.17;16.57;;;;;;;2.07;100.00;98373.94;2256412;79;21095;-58
2022/12/08 06:23:48;;;;;;;35.28;15.20;;;;;;;2.05;100.00;98379.59;2256242;79;21037;-58
2022/12/08 06:26:50;;;;;;;33.80;14.70;;;;;;;2.05;100.00;98380.88;2256708;79;21064;-59
2022/12/08 06:29:51;;;;;;;33.53;14.80;;;;;;;2.01;100.00;98384.04;2256223;79;21008;-59
2022/12/08 06:32:52;;;;;;;37.67;15.85;;;;;;;1.95;100.00;98379.05;2256639;79;21500;-59
2022/12/08 06:35:54;;;;;;;39.92;15.85;;;;;;;1.95;100.00;98385.97;2256448;79;21076;-59
2022/12/08 06:38:55;;;;;;;37.98;16.67;;;;;;;1.92;100.00;98383.48;2256263;79;21004;-59
2022/12/08 06:45:00;;;;;;;39.60;17.23;;;;;;;1.94;100.00;98378.67;2229683;79;21008;-59
2022/12/08 06:48:02;;;;;;;38.60;16.15;;;;;;;1.97;100.00;98383.73;2256370;79;21551;-58
2022/12/08 06:51:03;;;;;;;37.58;16.93;;;;;;;1.92;100.00;98389.95;2256321;79;21060;-58
2022/12/08 06:54:04;;;;;;;38.58;17.27;;;;;;;2.00;100.00;98386.68;2256376;79;21028;-59
2022/12/08 06:57:06;;;;;;;41.30;16.87;;;;;;;1.96;100.00;98391.09;2256497;79;21059;-59
2022/12/08 07:00:07;;;;;;;44.73;19.57;;;;;;;1.90;100.00;98386.97;2256320;79;21029;-59
2022/12/08 07:03:09;;;;;;;46.00;20.35;;;;;;;1.98;100.00;98384.57;2256494;79;21819;-59
2022/12/08 07:06:10;;;;;;;45.90;19.50;;;;;;;2.00;100.00;98390.09;2256383;79;21013;-59
2022/12/08 07:09:11;;;;;;;44.23;18.62;;;;;;;2.03;100.00;98393.87;2256469;79;21543;-59
2022/12/08 07:12:13;;;;;;;42.87;17.90;;;;;;;1.98;100.00;98391.88;2256246;79;20985;-59
2022/12/08 07:15:15;;;;;;;41.48;18.67;;;;;;;1.97;100.00;98390.20;2256224;79;21024;-59
2022/12/08 07:18:16;;;;;;;40.55;17.65;;;;;;;2.00;100.00;98394.44;2256638;79;21044;-59
2022/12/08 07:21:18;;;;;;;41.43;18.13;;;;;;;2.02;100.00;98390.88;2256416;79;21103;-58
2022/12/08 07:24:19;;;;;;;43.70;18.60;;;;;;;2.05;100.00;98389.52;2256565;79;21056;-59
2022/12/08 07:27:21;;;;;;;42.40;18.23;;;;;;;2.22;100.00;98398.44;2256715;79;21080;-58
2022/12/08 07:30:23;;;;;;;40.20;17.73;;;;;;;2.33;100.00;98392.87;2256273;79;21360;-59
2022/12/08 07:33:24;;;;;;;40.63;18.40;;;;;;;2.37;100.00;98390.16;2256605;79;21112;-59
2022/12/08 07:36:26;;;;;;;41.00;17.98;;;;;;;2.46;100.00;98394.16;2256572;79;21060;-59
2022/12/08 07:39:27;;;;;;;42.87;17.70;;;;;;;2.46;100.00;98395.89;2256594;79;21088;-59
2022/12/08 07:42:29;;;;;;;38.73;17.95;;;;;;;2.51;100.00;98399.17;2256355;79;22264;-59
2022/12/08 07:45:30;;;;;;;40.15;17.20;;;;;;;2.47;100.00;98401.04;2256299;79;21057;-58
2022/12/08 07:48:31;;;;;;;37.15;15.83;;;;;;;2.52;100.00;98400.87;2256685;79;21025;-59
2022/12/08 07:51:33;;;;;;;42.53;16.67;;;;;;;2.50;100.00;98401.36;2256183;79;21057;-58
2022/12/08 07:54:34;;;;;;;41.77;17.27;;;;;;;2.45;100.00;98404.58;2255955;79;20945;-59
2022/12/08 07:57:36;;;;;;;47.80;18.50;;;;;;;2.50;100.00;98401.36;2256450;79;21084;-59
2022/12/08 08:00:38;;;;;;;50.38;18.82;;;;;;;2.58;100.00;98403.23;2255986;79;21159;-58
2022/12/08 08:03:40;;;;;;;47.13;19.67;;;;;;;2.65;100.00;98407.76;2256517;79;21044;-58
2022/12/08 08:06:41;;;;;;;40.83;18.82;;;;;;;2.81;100.00;98395.11;2256442;79;21037;-59
2022/12/08 08:09:44;;;;;;;38.10;16.95;;;;;;;2.96;100.00;98398.44;2256485;79;21064;-58
2022/12/08 08:12:46;;;;;;;39.95;17.35;;;;;;;3.05;100.00;98390.77;2256179;79;21504;-58
2022/12/08 08:15:48;;;;;;;36.90;16.00;;;;;;;3.05;100.00;98401.14;2256307;79;21020;-59
2022/12/08 08:18:49;;;;;;;38.25;17.50;;;;;;;3.12;100.00;98406.02;2256426;79;21494;-59
2022/12/08 08:21:50;;;;;;;41.65;18.00;;;;;;;3.21;100.00;98406.59;2256231;79;21036;-59
2022/12/08 08:24:52;;;;;;;37.60;16.55;;;;;;;3.26;100.00;98417.61;2256078;79;21084;-59
2022/12/08 08:27:54;;;;;;;41.97;18.67;;;;;;;3.24;100.00;98410.35;2256665;79;21088;-59
2022/12/08 08:34:03;;;;;;;38.53;16.23;;;;;;;3.37;100.00;98405.55;2229317;79;20962;-59
2022/12/08 08:37:02;;;;;;;36.50;15.40;;;;;;;3.47;100.00;98395.21;2230030;79;21460;-60
2022/12/08 08:40:04;;;;;;;39.20;17.60;;;;;;;3.76;100.00;98394.51;2256238;79;20940;-58
2022/12/08 08:43:05;;;;;;;36.95;15.68;;;;;;;3.97;100.00;98399.30;2256514;79;21599;-59
2022/12/08 08:46:07;;;;;;;36.65;15.85;;;;;;;3.97;100.00;98405.31;2256349;79;21056;-59
2022/12/08 08:49:09;;;;;;;41.58;15.95;;;;;;;4.03;100.00;98404.22;2256277;79;21558;-59
2022/12/08 08:52:10;;;;;;;37.38;16.27;;;;;;;4.10;100.00;98404.83;2255881;79;21091;-59
2022/12/08 08:55:12;;;;;;;39.38;16.97;;;;;;;4.07;100.00;98404.48;2256117;79;21044;-59
2022/12/08 08:58:13;;;;;;;37.67;16.80;;;;;;;4.05;100.00;98397.23;2256227;79;21016;-59
2022/12/08 09:01:14;;;;;;;36.05;16.48;;;;;;;4.15;100.00;98388.16;2256106;79;21032;-59
2022/12/08 09:04:16;;;;;;;36.95;15.78;;;;;;;4.26;100.00;98395.48;2256212;79;21410;-59
2022/12/08 09:07:17;;;;;;;40.48;17.80;;;;;;;4.39;100.00;98398.86;2256114;79;21036;-59
2022/12/08 09:10:19;;;;;;;45.58;19.67;;;;;;;4.51;100.00;98391.39;2256186;79;21576;-58
2022/12/08 09:13:21;;;;;;;42.23;19.10;;;;;;;4.65;100.00;98391.23;2256372;79;21059;-59
2022/12/08 09:16:23;;;;;;;44.75;20.25;;;;;;;4.71;100.00;98390.95;2256322;79;21100;-59
2022/12/08 09:19:24;;;;;;;41.15;18.57;;;;;;;4.73;100.00;98389.62;2255695;79;21004;-59
2022/12/08 09:22:26;;;;;;;38.70;16.90;;;;;;;4.71;100.00;98387.52;2256460;79;21020;-59
2022/12/08 09:25:27;;;;;;;38.98;17.10;;;;;;;4.85;100.00;98382.09;2256098;79;21024;-59
2022/12/08 09:28:28;;;;;;;32.42;13.83;;;;;;;5.02;100.00;98377.91;2256335;79;21563;-59
2022/12/08 09:31:30;;;;;;;34.40;15.38;;;;;;;5.14;100.00;98377.36;2256076;79;21016;-59
2022/12/08 09:34:31;;;;;;;37.42;16.23;;;;;;;5.25;100.00;98373.41;2256137;79;20969;-59
2022/12/08 09:37:33;;;;;;;36.85;16.23;;;;;;;5.31;100.00;98374.42;2256382;79;21556;-59
2022/12/08 09:40:34;;;;;;;40.12;15.80;;;;;;;5.33;100.00;98372.14;2256068;79;21028;-59
2022/12/08 09:43:36;;;;;;;32.05;12.93;;;;;;;5.38;100.00;98369.31;2256072;79;21046;-59
2022/12/08 09:46:37;;;;;;;30.62;13.22;;;;;;;5.43;100.00;98368.66;2256418;79;21072;-58
2022/12/08 09:49:38;;;;;;;32.85;12.50;;;;;;;5.49;100.00;98361.02;2256274;79;21028;-58
2022/12/08 09:52:40;;;;;;;33.20;13.28;;;;;;;5.55;100.00;98364.63;2256084;79;21103;-58
2022/12/08 09:55:41;;;;;;;31.25;13.45;;;;;;;5.67;100.00;98365.31;2256317;79;21048;-59
2022/12/08 09:58:44;;;;;;;32.50;13.58;;;;;;;5.75;100.00;98360.20;2256300;79;21550;-59
2022/12/08 10:01:46;;;;;;;32.05;12.55;;;;;;;5.68;100.00;98351.86;2256272;79;21032;-59
2022/12/08 10:04:47;;;;;;;38.60;14.85;;;;;;;5.58;100.00;98344.95;2256411;79;21025;-58
2022/12/08 10:07:49;;;;;;;39.88;15.20;;;;;;;5.71;100.00;98356.45;2256296;79;21068;-58
2022/12/08 10:10:50;;;;;;;33.38;13.25;;;;;;;5.89;100.00;98355.19;2256454;79;21016;-59
2022/12/08 10:13:51;;;;;;;32.45;12.47;;;;;;;6.08;100.00;98347.33;2256192;79;21075;-58
2022/12/08 10:16:53;;;;;;;32.42;13.13;;;;;;;6.08;100.00;98339.52;2255922;79;21486;-59
2022/12/08 10:19:54;;;;;;;35.60;13.75;;;;;;;6.21;100.00;98333.23;2256362;79;21013;-58
2022/12/08 10:22:56;;;;;;;35.75;13.60;;;;;;;6.30;100.00;98334.52;2256234;79;21072;-59
2022/12/08 10:25:58;;;;;;;36.07;13.93;;;;;;;6.35;100.00;98334.66;2256756;79;21122;-59
2022/12/08 10:29:01;;;;;;;33.07;13.80;;;;;;;6.49;100.00;98322.67;2256698;79;21478;-58
2022/12/08 10:32:02;;;;;;;30.00;11.68;;;;;;;6.68;100.00;98324.70;2256630;79;21054;-59
2022/12/08 10:35:04;;;;;;;26.30;9.60;;;;;;;6.88;100.00;98322.33;2256616;79;20996;-59
2022/12/08 10:38:05;;;;;;;31.42;11.75;;;;;;;6.96;100.00;98320.61;2256490;79;21044;-59
2022/12/08 10:41:07;;;;;;;24.18;8.98;;;;;;;7.00;100.00;98323.91;2256383;79;21146;-58
2022/12/08 10:44:08;;;;;;;29.60;11.30;;;;;;;6.81;100.00;98318.81;2256481;79;21040;-60
2022/12/08 10:47:09;;;;;;;27.95;11.60;;;;;;;6.86;100.00;98322.86;2256723;79;21483;-59
2022/12/08 10:50:11;;;;;;;25.30;9.63;;;;;;;6.94;100.00;98317.25;2256038;79;21060;-58
2022/12/08 10:53:12;;;;;;;26.68;10.15;;;;;;;7.02;100.00;98313.74;2249406;79;21491;-58
2022/12/08 10:56:14;;;;;;;29.87;11.87;;;;;;;7.03;100.00;98307.61;2249458;79;21020;-59
2022/12/08 10:59:15;;;;;;;28.17;9.78;;;;;;;7.11;100.00;98293.69;2249162;79;21512;-59
2022/12/08 11:02:17;;;;;;;23.70;8.78;;;;;;;7.10;100.00;98296.39;2249523;79;21583;-59
2022/12/08 11:05:19;;;;;;;29.10;10.50;;;;;;;7.07;100.00;98297.39;2249496;79;21080;-59
2022/12/08 11:08:20;;;;;;;25.23;9.33;;;;;;;6.93;100.00;98290.31;2248964;79;21799;-59
2022/12/08 11:11:21;;;;;;;27.10;10.78;;;;;;;6.58;100.00;98284.42;2249167;79;21018;-59
2022/12/08 11:14:23;;;;;;;32.30;12.78;;;;;;;6.48;100.00;98287.11;2249528;79;21028;-59
2022/12/08 11:17:24;;;;;;;32.20;14.40;;;;;;;6.63;100.00;98290.21;2249286;79;21017;-59
2022/12/08 11:20:26;;;;;;;24.45;10.10;;;;;;;6.74;100.00;98285.74;2249105;79;21076;-59
2022/12/08 11:23:27;;;;;;;27.30;10.03;;;;;;;6.89;100.00;98282.28;2249398;79;21112;-59
2022/12/08 11:26:29;;;;;;;33.10;13.48;;;;;;;7.15;100.00;98283.09;2249241;79;21065;-59
2022/12/08 11:29:30;;;;;;;32.83;13.08;;;;;;;7.17;100.00;98288.60;2249220;79;21440;-59
2022/12/08 11:32:33;;;;;;;28.55;11.00;;;;;;;7.00;100.00;98290.83;2249129;79;21067;-59
2022/12/08 11:35:35;;;;;;;29.87;10.63;;;;;;;6.79;100.00;98294.14;2249227;79;21076;-58
2022/12/08 11:38:36;;;;;;;25.00;9.73;;;;;;;6.68;100.00;98292.56;2249149;79;21135;-59
2022/12/08 11:41:38;;;;;;;27.33;10.87;;;;;;;6.61;100.00;98290.77;2249625;79;21041;-59
2022/12/08 11:44:39;;;;;;;26.50;10.10;;;;;;;6.55;100.00;98286.72;2249083;79;21283;-59
2022/12/08 11:47:41;;;;;;;27.45;10.80;;;;;;;6.60;100.00;98290.38;2249415;79;21559;-59
2022/12/08 11:50:42;;;;;;;28.10;10.63;;;;;;;6.64;100.00;98290.60;2249739;79;21047;-59
2022/12/08 11:53:44;;;;;;;29.07;10.73;;;;;;;6.66;100.00;98286.13;2256511;79;21528;-59
2022/12/08 11:56:45;;;;;;;28.57;11.20;;;;;;;6.70;100.00;98286.35;2256319;79;21417;-59
2022/12/08 11:59:48;;;;;;;29.67;11.85;;;;;;;6.73;100.00;98281.45;2256182;79;21091;-59
2022/12/08 12:02:50;;;;;;;29.30;13.40;;;;;;;6.71;100.00;98285.44;2256137;79;21119;-59
2022/12/08 12:05:52;;;;;;;28.90;11.90;;;;;;;6.80;100.00;98292.39;2256529;79;21507;-59
2022/12/08 12:08:54;;;;;;;;;;;;;;;6.78;100.00;98289.01;2258995;79;21041;-59
2022/12/08 12:14:58;;;;;;;33.35;13.55;;;;;;;6.79;100.00;98293.30;2229517;79;20965;-59
2022/12/08 12:18:00;;;;;;;31.57;13.30;;;;;;;6.64;100.00;98282.78;2256307;79;21040;-59
2022/12/08 12:21:01;;;;;;;36.20;13.88;;;;;;;6.57;100.00;98285.34;2256305;79;21037;-59
2022/12/08 12:24:03;;;;;;;30.63;13.53;;;;;;;6.57;100.00;98286.17;2256214;79;21015;-59
2022/12/08 12:27:04;;;;;;;31.73;12.60;;;;;;;6.50;100.00;98281.38;2256523;79;21079;-59
2022/12/08 12:30:06;;;;;;;31.43;12.73;;;;;;;6.40;100.00;98276.63;2256504;79;21091;-59
2022/12/08 12:33:12;;;;;;;31.97;12.95;;;;;;;6.23;100.00;98268.87;2256638;79;21531;-59
2022/12/08 12:36:10;;;;;;;32.60;12.88;;;;;;;6.15;100.00;98270.58;2229911;79;20984;-58
2022/12/08 12:39:12;;;;;;;34.83;12.95;;;;;;;6.16;100.00;98271.41;2256268;79;21033;-59
2022/12/08 12:42:13;;;;;;;35.37;13.63;;;;;;;6.09;100.00;98270.87;2256456;79;21108;-59
2022/12/08 12:45:15;;;;;;;32.73;13.35;;;;;;;6.08;100.00;98254.89;2256531;79;21527;-60
2022/12/08 12:48:16;;;;;;;34.83;13.95;;;;;;;6.01;100.00;98266.55;2256255;79;21059;-60
2022/12/08 12:51:18;;;;;;;30.15;12.75;;;;;;;5.85;100.00;98260.77;2254779;79;21599;-59
2022/12/08 12:54:19;;;;;;;34.15;14.93;;;;;;;5.81;100.00;98258.41;2249446;79;21054;-59
2022/12/08 12:57:21;;;;;;;38.38;15.10;;;;;;;5.69;100.00;98254.67;2249161;79;21013;-59
2022/12/08 13:00:22;;;;;;;34.50;13.38;;;;;;;5.64;100.00;98251.45;2249201;79;21072;-59
2022/12/08 13:03:25;;;;;;;40.52;17.10;;;;;;;5.55;100.00;98249.68;2219957;79;21012;-59
2022/12/08 13:06:27;;;;;;;38.38;15.08;;;;;;;5.46;100.00;98250.15;2249432;79;21551;-59
2022/12/08 13:09:28;;;;;;;36.90;14.75;;;;;;;5.27;100.00;98251.52;2249129;79;21025;-58
2022/12/08 13:12:29;;;;;;;41.00;15.70;;;;;;;5.12;100.00;98246.58;2249197;79;21084;-59
2022/12/08 13:15:31;;;;;;;36.73;15.30;;;;;;;5.05;100.00;98246.95;2248820;79;21005;-59
2022/12/08 13:18:33;;;;;;;40.48;14.03;;;;;;;4.97;100.00;98242.10;2249055;79;21071;-59
2022/12/08 13:21:34;;;;;;;34.23;13.35;;;;;;;4.89;100.00;98239.87;2249098;79;21515;-59
2022/12/08 13:24:36;;;;;;;34.63;13.58;;;;;;;4.85;100.00;98240.93;2248924;79;21080;-59
2022/12/08 13:27:38;;;;;;;38.53;14.38;;;;;;;4.81;100.00;98240.25;2249027;79;21551;-59
2022/12/08 13:30:40;;;;;;;35.03;14.85;;;;;;;4.73;100.00;98247.55;2249236;79;21012;-58
2022/12/08 13:33:41;;;;;;;55.25;21.73;;;;;;;4.70;100.00;98241.20;2249032;79;21056;-59
2022/12/08 13:36:46;;;;;;;40.87;15.70;;;;;;;4.69;100.00;98246.00;2249450;79;21045;-59
2022/12/08 13:39:46;;;;;;;48.10;19.55;;;;;;;4.64;100.00;98244.06;2220032;79;20961;-59
2022/12/08 13:42:48;;;;;;;36.30;14.30;;;;;;;4.56;100.00;98237.10;2249509;79;21574;-60
2022/12/08 13:45:49;;;;;;;33.75;12.70;;;;;;;4.47;100.00;98243.56;2249399;79;21020;-59
2022/12/08 13:48:52;;;;;;;56.80;22.42;;;;;;;4.43;100.00;98240.71;2249373;79;21065;-58
2022/12/08 13:51:53;;;;;;;41.45;15.98;;;;;;;4.39;100.00;98238.70;2249063;79;21342;-59
2022/12/08 13:54:55;;;;;;;37.38;14.85;;;;;;;4.37;100.00;98243.56;2249032;79;21021;-59
2022/12/08 13:57:56;;;;;;;34.88;12.70;;;;;;;4.33;100.00;98235.92;2249120;79;21053;-59
2022/12/08 14:00:58;;;;;;;26.45;9.48;;;;;;;4.30;100.00;98245.14;2248996;79;21033;-58
2022/12/08 14:03:59;;;;;;;31.40;11.13;;;;;;;4.28;100.00;98237.89;2249493;79;21571;-58
2022/12/08 14:07:01;;;;;;;28.92;9.85;;;;;;;4.24;100.00;98242.83;2249374;79;21743;-58
2022/12/08 14:10:02;;;;;;;33.08;11.85;;;;;;;4.23;100.00;98241.14;2249309;79;21507;-59
2022/12/08 14:13:04;;;;;;;36.15;11.97;;;;;;;4.22;100.00;98243.80;2248769;79;21004;-58
2022/12/08 14:16:06;;;;;;;40.88;15.83;;;;;;;4.21;100.00;98242.11;2249174;79;21844;-59
2022/12/08 14:19:07;;;;;;;40.15;16.95;;;;;;;4.15;100.00;98242.78;2248900;79;21072;-58